Date,TemperatureHighF,TemperatureAvgF,TemperatureLowF,DewpointHighF,DewpointAvgF,DewpointLowF,HumidityHigh,HumidityAvg,HumidityLow,PressureMaxIn,PressureMinIn,WindSpeedMaxMPH,WindSpeedAvgMPH,GustSpeedMaxMPH,PrecipitationSumIn
2013-9-1,78.4,71.3,66.4,63.7,58.7,49.5,79,65,47,30.23,30.15,0,0,7,0.00
2013-9-2,78.4,71.3,64.9,64.4,58.4,53.1,84,65,46,30.26,30.19,0,0,6,0.00
2013-9-3,76.6,71.7,68.7,64.2,62.3,56.2,82,73,52,30.25,30.18,1,0,9,0.00
2013-9-4,80.1,72.0,67.5,67.5,62.2,57.5,87,72,51,30.22,30.10,1,0,7,0.00
2013-9-5,77.7,71.4,64.8,67.5,60.6,50.4,79,69,56,30.10,29.96,0,0,6,0.00
2013-9-6,78.3,70.8,64.9,66.7,63.1,57.0,87,77,64,30.01,29.93,0,0,3,0.00
2013-9-7,75.9,70.3,65.7,67.0,63.3,59.8,88,79,68,30.12,30.00,0,0,3,0.01
2013-9-8,78.3,71.8,67.3,68.9,65.9,59.4,91,82,65,30.22,30.06,0,0,1,0.07
2013-9-9,77.4,70.5,65.8,66.8,64.3,60.7,89,81,67,30.24,30.20,0,0,2,0.00
2013-9-10,77.7,70.1,64.8,64.1,60.7,54.0,90,73,46,30.20,30.09,0,0,4,0.00
2013-9-11,72.3,66.1,62.1,65.0,61.5,59.4,94,85,71,30.16,30.06,0,0,9,0.48
2013-9-12,75.4,66.2,61.5,62.2,59.5,56.6,91,80,58,30.21,30.14,0,0,3,0.00
2013-9-13,74.8,67.2,60.8,60.6,58.5,56.6,88,75,57,30.26,30.19,0,0,4,0.00
2013-9-14,77.7,68.6,62.4,63.6,60.6,58.2,87,76,52,30.26,30.07,0,0,3,0.00
2013-9-15,75.6,70.5,66.0,67.6,64.5,60.5,87,81,72,30.07,29.96,0,0,5,0.00
2013-9-16,75.4,69.2,32.0,67.5,63.5,59.5,90,82,69,30.04,29.88,0,0,1,0.00
2013-9-17,73.6,69.6,64.9,66.7,62.3,59.2,91,78,64,30.02,29.88,0,0,5,0.00
2013-9-18,74.7,67.8,62.1,62.9,59.9,53.9,88,77,62,30.02,29.94,0,0,3,0.00
2013-9-19,75.4,69.4,64.6,65.0,61.9,54.1,89,77,65,30.04,29.91,0,0,7,0.00
2013-9-20,75.0,68.1,63.0,64.6,61.6,58.2,91,80,59,30.18,30.03,0,0,4,0.04
2013-9-21,75.6,67.6,62.1,65.6,60.5,55.3,86,78,60,30.27,30.17,0,0,3,0.00
2013-9-22,75.7,68.4,63.1,64.1,61.2,57.7,88,78,61,30.29,30.23,0,0,5,0.00
2013-9-23,74.3,66.9,61.5,62.8,59.5,54.0,87,77,62,30.24,30.13,0,0,4,0.00
2013-9-24,72.3,66.8,61.7,63.5,60.8,57.6,89,81,66,30.12,30.04,0,0,1,0.00
2013-9-25,74.1,67.6,61.5,63.3,60.4,57.1,87,78,67,30.05,29.99,0,0,4,0.00
2013-9-26,78.6,70.7,62.1,66.8,63.1,56.5,88,77,65,30.06,30.00,0,0,1,0.00
2013-9-27,82.0,74.8,66.2,66.4,53.4,35.2,87,49,29,30.02,29.87,0,0,3,0.00
2013-9-28,75.7,72.3,68.0,68.4,64.8,60.2,88,78,59,29.87,29.79,0,0,3,0.00
2013-9-29,71.8,69.7,66.3,63.6,61.7,59.7,84,76,68,29.82,29.76,0,0,7,0.00
2013-9-30,74.1,70.4,66.7,66.1,63.2,58.4,87,78,69,29.85,29.78,0,0,5,0.00